createdAt,value
2023-05-19T00:00:03.726Z,100065.95
2023-05-19T00:03:00.628Z,100060.65
2023-05-19T00:05:31.149Z,100057.40
2023-05-19T00:08:02.519Z,100056.18
2023-05-19T00:10:33.250Z,100053.98
2023-05-19T00:13:02.090Z,100052.23
2023-05-19T00:15:30.995Z,100050.17
2023-05-19T00:17:59.468Z,100045.28
2023-05-19T00:20:27.801Z,100046.33
2023-05-19T00:22:56.232Z,100044.50
2023-05-19T00:25:25.038Z,100042.61
2023-05-19T00:27:53.340Z,100041.73
2023-05-19T00:30:23.053Z,100046.19
2023-05-19T00:32:51.864Z,100043.21
2023-05-19T00:35:20.342Z,100040.48
2023-05-19T00:37:48.948Z,100039.23
2023-05-19T00:40:17.683Z,100039.36
2023-05-19T00:42:46.005Z,100040.66
2023-05-19T00:45:14.294Z,100041.77
2023-05-19T00:47:42.938Z,100041.48
2023-05-19T00:50:11.263Z,100037.56
2023-05-19T00:52:39.700Z,100040.25
2023-05-19T00:55:09.132Z,100036.80
2023-05-19T00:57:38.730Z,100039.85
2023-05-19T01:00:08.190Z,100043.02
2023-05-19T01:02:40.183Z,100040.73
2023-05-19T01:05:10.431Z,100035.10
2023-05-19T01:07:38.901Z,100031.04
2023-05-19T01:10:08.110Z,100030.06
2023-05-19T01:12:36.831Z,100027.36
2023-05-19T01:15:05.765Z,100028.95
2023-05-19T01:18:08.207Z,100028.55
2023-05-19T01:20:42.828Z,100030.23
2023-05-19T01:23:40.294Z,100037.27
2023-05-19T01:26:14.752Z,100037.29
2023-05-19T01:29:07.336Z,100038.70
2023-05-19T01:31:38.884Z,100034.81
2023-05-19T01:34:10.774Z,100039.27
2023-05-19T01:36:44.984Z,100038.93
2023-05-19T01:39:14.453Z,100039.63
2023-05-19T01:41:45.929Z,100037.38
2023-05-19T01:44:16.178Z,100039.84
2023-05-19T01:46:45.911Z,100039.53
2023-05-19T01:49:14.564Z,100039.86
2023-05-19T01:51:43.186Z,100040.58
2023-05-19T01:54:11.504Z,100037.76
2023-05-19T01:56:48.807Z,100038.50
2023-05-19T01:59:24.291Z,100037.20
2023-05-19T02:01:55.960Z,100038.21
2023-05-19T02:04:46.371Z,100036.24
2023-05-19T02:07:33.124Z,100034.55
2023-05-19T02:10:10.410Z,100029.38
2023-05-19T02:12:40.903Z,100029.20
2023-05-19T02:15:27.067Z,100025.35
2023-05-19T02:17:58.186Z,100026.49
2023-05-19T02:20:26.531Z,100026.95
2023-05-19T02:22:54.871Z,100022.98
2023-05-19T02:25:24.363Z,100018.86
2023-05-19T02:27:52.958Z,100018.23
2023-05-19T02:30:21.305Z,100014.91
2023-05-19T02:32:49.801Z,100015.12
2023-05-19T02:35:19.055Z,100014.08
2023-05-19T02:37:47.293Z,100012.10
2023-05-19T02:40:16.296Z,100010.84
2023-05-19T02:42:45.611Z,100012.02
2023-05-19T02:45:14.349Z,100010.14
2023-05-19T02:47:42.790Z,100013.67
2023-05-19T02:50:11.196Z,100016.10
2023-05-19T02:52:39.492Z,100017.67
2023-05-19T02:55:08.329Z,100017.13
2023-05-19T02:57:36.689Z,100017.00
2023-05-19T03:00:05.965Z,100015.08
2023-05-19T03:02:35.530Z,100014.91
2023-05-19T03:05:04.441Z,100015.34
2023-05-19T03:07:33.879Z,100012.84
2023-05-19T03:10:06.813Z,100012.39
2023-05-19T03:12:35.316Z,100012.95
2023-05-19T03:15:03.864Z,100015.42
2023-05-19T03:17:34.432Z,100012.84
2023-05-19T03:20:03.241Z,100010.25
2023-05-19T03:22:33.613Z,100013.98
2023-05-19T03:25:02.595Z,100016.39
2023-05-19T03:27:32.579Z,100016.70
2023-05-19T03:30:06.645Z,100016.23
2023-05-19T03:32:39.297Z,100015.45
2023-05-19T03:35:07.978Z,100018.27
2023-05-19T03:37:36.497Z,100019.64
2023-05-19T03:40:08.851Z,100019.64
2023-05-19T03:42:38.629Z,100019.27
2023-05-19T03:45:07.927Z,100018.98
2023-05-19T03:47:36.258Z,100016.23
2023-05-19T03:50:24.280Z,100019.91
2023-05-19T03:52:58.364Z,100018.39
2023-05-19T03:55:32.198Z,100017.23
2023-05-19T03:58:01.773Z,100015.86
2023-05-19T04:00:34.030Z,100010.21
2023-05-19T04:03:03.184Z,100007.61
2023-05-19T04:05:52.365Z,100014.05
2023-05-19T04:08:40.903Z,100016.83
2023-05-19T04:11:09.539Z,100019.41
2023-05-19T04:13:38.061Z,100023.83
2023-05-19T04:16:07.157Z,100027.92
2023-05-19T04:18:35.763Z,100027.16
2023-05-19T04:21:08.740Z,100023.73
2023-05-19T04:23:37.215Z,100026.77
2023-05-19T04:26:07.788Z,100029.58
2023-05-19T04:28:39.273Z,100032.05
2023-05-19T04:31:11.101Z,100034.30
2023-05-19T04:33:41.715Z,100028.46
2023-05-19T04:36:11.580Z,100027.53
2023-05-19T04:38:40.815Z,100024.44
2023-05-19T04:41:10.687Z,100021.30
2023-05-19T04:43:42.073Z,100018.08
2023-05-19T04:46:13.742Z,100020.30
2023-05-19T04:48:45.246Z,100020.95
2023-05-19T04:51:14.482Z,100020.10
2023-05-19T04:53:43.779Z,100018.68
2023-05-19T04:56:16.182Z,100022.26
2023-05-19T04:58:47.108Z,100021.60
2023-05-19T05:01:16.367Z,100021.14
2023-05-19T05:03:45.087Z,100020.56
2023-05-19T05:06:13.649Z,100024.13
2023-05-19T05:08:46.140Z,100022.55
2023-05-19T05:11:16.135Z,100021.14
2023-05-19T05:13:45.275Z,100020.23
2023-05-19T05:16:15.354Z,100023.50
2023-05-19T05:19:11.326Z,100024.59
2023-05-19T05:21:40.171Z,100022.83
2023-05-19T05:24:09.836Z,100020.36
2023-05-19T05:26:39.091Z,100021.42
2023-05-19T05:29:14.772Z,100025.10
2023-05-19T05:31:43.287Z,100027.92
2023-05-19T05:34:12.808Z,100030.08
2023-05-19T05:36:41.943Z,100030.20
2023-05-19T05:39:11.651Z,100029.89
2023-05-19T05:41:41.760Z,100033.86
2023-05-19T05:44:12.920Z,100031.71
2023-05-19T05:46:43.381Z,100032.41
2023-05-19T05:49:13.677Z,100033.34
2023-05-19T05:51:54.283Z,100035.92
2023-05-19T05:54:41.642Z,100039.89
2023-05-19T05:57:11.444Z,100038.30
2023-05-19T05:59:40.819Z,100040.70
2023-05-19T06:02:09.567Z,100041.66
2023-05-19T06:04:40.823Z,100037.96
2023-05-19T06:07:12.552Z,100040.22
2023-05-19T06:09:41.606Z,100039.90
2023-05-19T06:12:16.808Z,100039.40
2023-05-19T06:14:54.742Z,100042.64
2023-05-19T06:17:42.417Z,100044.01
2023-05-19T06:20:14.320Z,100045.75
2023-05-19T06:22:45.079Z,100047.94
2023-05-19T06:25:18.146Z,100050.92
2023-05-19T06:27:47.175Z,100051.64
2023-05-19T06:30:19.724Z,100054.73
2023-05-19T06:33:15.546Z,100058.77
2023-05-19T06:35:44.454Z,100060.80
2023-05-19T06:38:16.152Z,100065.88
2023-05-19T06:40:44.713Z,100064.33
2023-05-19T06:43:13.481Z,100066.92
2023-05-19T06:46:08.097Z,100067.62
2023-05-19T06:48:49.032Z,100067.34
2023-05-19T06:51:22.601Z,100065.98
2023-05-19T06:53:54.850Z,100066.66
2023-05-19T06:56:25.584Z,100066.65
2023-05-19T06:58:57.264Z,100068.72
2023-05-19T07:01:33.255Z,100066.82
2023-05-19T07:04:02.217Z,100069.80
2023-05-19T07:06:32.267Z,100060.80
2023-05-19T07:09:06.650Z,100054.45
2023-05-19T07:11:39.851Z,100053.39
2023-05-19T07:14:21.158Z,100057.83
2023-05-19T07:16:55.763Z,100055.31
2023-05-19T07:19:30.030Z,100054.29
2023-05-19T07:22:05.094Z,100052.04
2023-05-19T07:24:41.737Z,100052.52
2023-05-19T07:27:13.369Z,100057.14
2023-05-19T07:29:42.075Z,100054.08
2023-05-19T07:32:11.259Z,100059.60
2023-05-19T07:34:41.038Z,100061.02
2023-05-19T07:37:09.420Z,100061.92
2023-05-19T07:39:38.994Z,100063.26
2023-05-19T07:42:07.641Z,100063.36
2023-05-19T07:44:36.574Z,100061.14
2023-05-19T07:47:05.154Z,100058.73
2023-05-19T07:49:33.756Z,100062.36
2023-05-19T07:52:15.326Z,100058.81
2023-05-19T07:54:46.515Z,100058.65
2023-05-19T07:57:14.857Z,100058.84
2023-05-19T07:59:48.570Z,100058.56
2023-05-19T08:02:17.149Z,100059.59
2023-05-19T08:04:49.606Z,100059.08
2023-05-19T08:07:18.179Z,100058.97
2023-05-19T08:09:47.594Z,100060.42
2023-05-19T08:12:26.105Z,100057.50
2023-05-19T08:14:55.514Z,100056.88
2023-05-19T08:17:24.052Z,100059.27
2023-05-19T08:19:56.415Z,100056.60
2023-05-19T08:22:27.490Z,100057.59
2023-05-19T08:25:04.525Z,100057.80
2023-05-19T08:27:34.623Z,100056.02
2023-05-19T08:30:05.266Z,100057.78
2023-05-19T08:32:34.676Z,100056.72
2023-05-19T08:35:03.400Z,100057.92
2023-05-19T08:37:37.238Z,100057.32
2023-05-19T08:40:16.302Z,100057.00
2023-05-19T08:42:47.893Z,100062.33
2023-05-19T08:45:20.077Z,100061.38
2023-05-19T08:47:53.414Z,100059.59
2023-05-19T08:50:32.153Z,100060.33
2023-05-19T08:53:33.926Z,100059.35
2023-05-19T08:56:20.385Z,100060.75
2023-05-19T08:58:51.968Z,100057.58
2023-05-19T09:01:22.746Z,100055.93
2023-05-19T09:03:54.994Z,100057.20
2023-05-19T09:06:24.255Z,100058.63
2023-05-19T09:08:52.668Z,100056.55
2023-05-19T09:11:23.967Z,100057.32
2023-05-19T09:13:55.428Z,100058.19
2023-05-19T09:16:25.511Z,100056.98
2023-05-19T09:18:56.624Z,100054.86
2023-05-19T09:21:35.148Z,100054.16
2023-05-19T09:24:08.495Z,100049.58
2023-05-19T09:26:41.571Z,100049.44
2023-05-19T09:29:20.715Z,100049.14
2023-05-19T09:31:52.229Z,100050.09
2023-05-19T09:34:22.305Z,100049.60
2023-05-19T09:36:52.118Z,100050.64
2023-05-19T09:39:22.974Z,100051.86
2023-05-19T09:41:56.223Z,100055.33
2023-05-19T09:44:30.339Z,100055.55
2023-05-19T09:46:58.933Z,100057.39
2023-05-19T09:49:33.480Z,100056.27
2023-05-19T09:52:08.015Z,100055.85
2023-05-19T09:54:41.176Z,100058.20
2023-05-19T09:57:09.560Z,100060.70
2023-05-19T09:59:39.912Z,100055.62
2023-05-19T10:02:16.864Z,100058.39
2023-05-19T10:04:48.518Z,100057.58
2023-05-19T10:07:17.934Z,100053.03
2023-05-19T10:09:48.946Z,100052.77
2023-05-19T10:12:20.098Z,100056.52
2023-05-19T10:14:54.961Z,100056.46
2023-05-19T10:17:25.437Z,100058.95
2023-05-19T10:19:58.046Z,100055.59
2023-05-19T10:22:26.699Z,100056.77
2023-05-19T10:24:57.894Z,100060.30
2023-05-19T10:27:37.191Z,100062.12
2023-05-19T10:30:16.349Z,100059.10
2023-05-19T10:32:48.695Z,100058.55
2023-05-19T10:35:36.013Z,100061.08
2023-05-19T10:38:24.206Z,100060.08
2023-05-19T10:41:28.847Z,100058.80
2023-05-19T10:44:36.261Z,100059.56
2023-05-19T10:47:07.751Z,100056.89
2023-05-19T10:49:36.875Z,100057.43
2023-05-19T10:52:26.125Z,100053.19
2023-05-19T10:54:55.054Z,100051.02
2023-05-19T10:57:28.176Z,100050.87
2023-05-19T10:59:57.517Z,100050.88
2023-05-19T11:02:45.126Z,100047.59
2023-05-19T11:05:20.511Z,100050.34
2023-05-19T11:08:08.001Z,100052.17
2023-05-19T11:10:38.693Z,100051.05
2023-05-19T11:13:07.250Z,100046.33
2023-05-19T11:15:39.457Z,100049.40
2023-05-19T11:18:16.176Z,100047.64
2023-05-19T11:20:56.058Z,100047.98
2023-05-19T11:23:26.013Z,100050.33
2023-05-19T11:25:54.485Z,100048.50
2023-05-19T11:28:28.462Z,100048.48
2023-05-19T11:30:59.407Z,100052.07
2023-05-19T11:33:27.951Z,100051.30
2023-05-19T11:36:00.205Z,100053.03
2023-05-19T11:38:30.393Z,100053.42
2023-05-19T11:41:05.396Z,100056.63
2023-05-19T11:43:36.080Z,100055.54
2023-05-19T11:46:25.771Z,100054.16
2023-05-19T11:48:54.725Z,100059.41
2023-05-19T11:51:26.599Z,100059.60
2023-05-19T11:54:27.044Z,100060.75
2023-05-19T11:57:14.799Z,100058.20
2023-05-19T11:59:58.095Z,100056.70
2023-05-19T12:02:33.495Z,100059.29
2023-05-19T12:05:24.774Z,100056.90
2023-05-19T12:08:00.290Z,100057.52
2023-05-19T12:10:38.516Z,100058.30
2023-05-19T12:13:14.766Z,100056.34
2023-05-19T12:16:15.398Z,100054.55
2023-05-19T12:21:48.188Z,100058.43
2023-05-19T12:27:42.180Z,100066.55
2023-05-19T12:30:31.037Z,100065.24
2023-05-19T12:33:18.900Z,100062.29
2023-05-19T12:36:00.845Z,100061.02
2023-05-19T12:38:48.714Z,100060.07
2023-05-19T12:41:34.033Z,100061.34
2023-05-19T12:44:15.458Z,100056.48
2023-05-19T12:47:06.100Z,100057.52
2023-05-19T12:50:09.201Z,100055.79
2023-05-19T12:52:51.244Z,100048.77
2023-05-19T12:55:21.091Z,100048.72
2023-05-19T12:58:00.112Z,100051.23
2023-05-19T13:00:31.240Z,100052.20
2023-05-19T13:03:04.518Z,100049.50
2023-05-19T13:05:38.065Z,100048.63
2023-05-19T13:08:08.929Z,100046.11
2023-05-19T13:10:39.193Z,100043.11
2023-05-19T13:13:08.631Z,100045.97
2023-05-19T13:15:49.095Z,100044.58
2023-05-19T13:18:18.469Z,100040.38
2023-05-19T13:20:50.243Z,100044.90
2023-05-19T13:23:19.452Z,100049.71
2023-05-19T13:25:47.877Z,100046.30
2023-05-19T13:28:16.264Z,100047.60
2023-05-19T13:30:45.396Z,100045.02
2023-05-19T13:33:13.893Z,100045.84
2023-05-19T13:35:42.307Z,100043.77
2023-05-19T13:38:10.912Z,100041.46
2023-05-19T13:40:40.344Z,100040.72
2023-05-19T13:43:09.746Z,100039.11
2023-05-19T13:45:38.764Z,100039.96
2023-05-19T13:48:07.677Z,100042.11
2023-05-19T13:50:36.733Z,100035.80
2023-05-19T13:53:05.246Z,100036.11
2023-05-19T13:55:33.774Z,100037.20
2023-05-19T13:58:03.531Z,100035.20
2023-05-19T14:00:32.268Z,100035.67
2023-05-19T14:03:01.130Z,100036.63
2023-05-19T14:05:31.114Z,100037.09
2023-05-19T14:08:01.196Z,100037.79
2023-05-19T14:10:29.686Z,100038.35
2023-05-19T14:15:34.581Z,100043.61
2023-05-19T14:18:04.749Z,100040.86
2023-05-19T14:20:34.320Z,100040.55
2023-05-19T14:23:03.078Z,100039.44
2023-05-19T14:25:31.575Z,100034.90
2023-05-19T14:28:00.064Z,100037.90
2023-05-19T14:30:29.048Z,100039.23
2023-05-19T14:32:57.447Z,100044.72
2023-05-19T14:35:26.494Z,100043.16
2023-05-19T14:37:54.915Z,100043.45
2023-05-19T14:40:23.081Z,100044.05
2023-05-19T14:42:51.471Z,100044.17
2023-05-19T14:45:19.729Z,100045.08
2023-05-19T14:47:48.262Z,100044.10
2023-05-19T14:50:16.687Z,100043.83
2023-05-19T14:52:44.970Z,100044.86
2023-05-19T14:55:13.181Z,100043.57
2023-05-19T14:57:41.599Z,100044.64
2023-05-19T15:00:10.524Z,100046.25
2023-05-19T15:02:38.894Z,100042.85
2023-05-19T15:05:08.489Z,100045.21
2023-05-19T15:07:36.823Z,100047.18
2023-05-19T15:10:05.551Z,100050.10
2023-05-19T15:12:33.804Z,100051.46
2023-05-19T15:15:02.265Z,100051.71
2023-05-19T15:17:31.006Z,100054.16
2023-05-19T15:19:59.467Z,100058.50
2023-05-19T15:22:27.859Z,100058.66
2023-05-19T15:24:56.219Z,100056.52
2023-05-19T15:27:24.912Z,100056.73
2023-05-19T15:29:53.396Z,100055.06
2023-05-19T15:32:21.682Z,100053.75
2023-05-19T15:34:50.108Z,100052.38
2023-05-19T15:37:18.350Z,100050.50
2023-05-19T15:39:46.602Z,100048.34
2023-05-19T15:42:14.952Z,100052.39
2023-05-19T15:44:45.980Z,100052.66
2023-05-19T15:47:14.286Z,100052.00
2023-05-19T15:49:42.573Z,100055.67
2023-05-19T15:52:10.946Z,100056.83
2023-05-19T15:54:39.303Z,100055.50
2023-05-19T15:57:07.759Z,100056.83
2023-05-19T15:59:36.068Z,100058.61
2023-05-19T16:02:04.588Z,100059.09
2023-05-19T16:04:33.586Z,100056.50
2023-05-19T16:07:01.933Z,100056.42
2023-05-19T16:09:30.201Z,100059.73
2023-05-19T16:11:58.659Z,100055.54
2023-05-19T16:14:31.031Z,100058.05
2023-05-19T16:17:01.825Z,100055.13
2023-05-19T16:19:30.106Z,100055.91
2023-05-19T16:21:58.535Z,100056.16
2023-05-19T16:24:26.980Z,100058.46
2023-05-19T16:26:55.288Z,100060.73
2023-05-19T16:29:23.943Z,100061.27
2023-05-19T16:31:52.448Z,100058.09
2023-05-19T16:34:20.812Z,100058.67
2023-05-19T16:36:49.084Z,100060.88
2023-05-19T16:39:17.530Z,100057.70
2023-05-19T16:41:45.856Z,100055.44
2023-05-19T16:44:14.745Z,100054.36
2023-05-19T16:46:43.178Z,100049.02
2023-05-19T16:49:11.399Z,100047.05
2023-05-19T16:51:39.928Z,100047.08
2023-05-19T16:54:08.226Z,100052.55
2023-05-19T16:56:36.544Z,100055.02
2023-05-19T16:59:04.905Z,100058.23
2023-05-19T17:01:33.303Z,100059.92
2023-05-19T17:04:01.710Z,100058.20
2023-05-19T17:06:30.083Z,100060.05
2023-05-19T17:08:58.549Z,100062.17
2023-05-19T17:11:27.842Z,100063.23
2023-05-19T17:13:56.117Z,100068.88
2023-05-19T17:16:24.624Z,100070.18
2023-05-19T17:18:53.036Z,100074.69
2023-05-19T17:21:21.540Z,100080.18
2023-05-19T17:23:49.940Z,100080.65
2023-05-19T17:26:18.418Z,100083.61
2023-05-19T17:28:46.693Z,100087.37
2023-05-19T17:31:15.936Z,100088.27
2023-05-19T17:33:44.429Z,100090.15
2023-05-19T17:36:12.670Z,100088.26
2023-05-19T17:38:41.986Z,100089.80
2023-05-19T17:41:10.352Z,100086.52
2023-05-19T17:43:40.686Z,100082.77
2023-05-19T17:46:09.668Z,100083.06
2023-05-19T17:48:40.008Z,100085.59
2023-05-19T17:51:08.717Z,100086.83
2023-05-19T17:53:40.864Z,100086.02
2023-05-19T17:56:12.116Z,100089.60
2023-05-19T17:58:41.434Z,100089.34
2023-05-19T18:01:10.191Z,100091.05
2023-05-19T18:03:38.887Z,100098.33
2023-05-19T18:06:08.105Z,100095.15
2023-05-19T18:08:38.298Z,100093.57
2023-05-19T18:11:08.556Z,100093.23
2023-05-19T18:13:37.783Z,100093.58
2023-05-19T18:16:06.561Z,100093.80
2023-05-19T18:18:37.314Z,100094.35
2023-05-19T18:21:06.063Z,100089.77
2023-05-19T18:23:34.461Z,100091.31
2023-05-19T18:26:02.821Z,100092.38
2023-05-19T18:28:31.271Z,100096.56
2023-05-19T18:31:00.956Z,100100.04
2023-05-19T18:33:30.988Z,100099.20
2023-05-19T18:35:59.935Z,100104.77
2023-05-19T18:38:28.435Z,100110.00
2023-05-19T18:40:56.912Z,100109.64
2023-05-19T18:43:25.378Z,100112.09
2023-05-19T18:45:53.779Z,100115.61
2023-05-19T18:48:22.736Z,100116.20
2023-05-19T18:50:51.890Z,100116.47
2023-05-19T18:53:22.768Z,100114.48
2023-05-19T18:55:51.275Z,100117.97
2023-05-19T18:58:19.654Z,100116.66
2023-05-19T19:00:48.151Z,100115.17
2023-05-19T19:03:17.107Z,100114.30
2023-05-19T19:05:46.128Z,100113.38
2023-05-19T19:08:14.509Z,100114.27
2023-05-19T19:10:42.910Z,100115.48
2023-05-19T19:13:11.388Z,100114.10
2023-05-19T19:15:39.837Z,100118.76
2023-05-19T19:18:08.562Z,100125.23
2023-05-19T19:20:37.330Z,100127.55
2023-05-19T19:23:06.867Z,100128.34
2023-05-19T19:25:35.495Z,100124.52
2023-05-19T19:28:03.793Z,100125.05
2023-05-19T19:30:32.466Z,100125.21
2023-05-19T19:33:01.421Z,100121.27
2023-05-19T19:35:29.903Z,100121.38
2023-05-19T19:38:01.566Z,100126.06
2023-05-19T19:40:30.077Z,100123.55
2023-05-19T19:42:58.381Z,100124.30
2023-05-19T19:45:26.736Z,100120.66
2023-05-19T19:47:55.651Z,100119.01
2023-05-19T19:50:24.175Z,100122.91
2023-05-19T19:52:53.001Z,100124.79
2023-05-19T19:55:21.689Z,100127.11
2023-05-19T19:57:51.326Z,100129.02
2023-05-19T20:00:19.869Z,100127.95
2023-05-19T20:03:03.678Z,100130.10
2023-05-19T20:05:33.365Z,100128.52
2023-05-19T20:08:01.842Z,100131.52
2023-05-19T20:10:30.348Z,100134.85
2023-05-19T20:12:59.486Z,100133.20
2023-05-19T20:15:27.850Z,100133.30
2023-05-19T20:17:56.345Z,100133.34
2023-05-19T20:20:24.822Z,100132.34
2023-05-19T20:22:53.249Z,100131.42
2023-05-19T20:25:21.612Z,100134.07
2023-05-19T20:27:49.928Z,100136.23
2023-05-19T20:30:18.641Z,100140.29
2023-05-19T20:32:47.241Z,100142.48
2023-05-19T20:35:15.977Z,100141.45
2023-05-19T20:37:44.324Z,100140.27
2023-05-19T20:40:12.980Z,100142.55
2023-05-19T20:42:41.390Z,100139.98
2023-05-19T20:45:10.123Z,100140.71
2023-05-19T20:47:38.763Z,100137.77
2023-05-19T20:50:07.589Z,100136.39
2023-05-19T20:52:36.093Z,100134.83
2023-05-19T20:55:04.736Z,100133.26
2023-05-19T20:57:33.202Z,100131.82
2023-05-19T21:00:01.703Z,100125.80
2023-05-19T21:02:30.154Z,100125.46
2023-05-19T21:04:58.568Z,100125.84
2023-05-19T21:07:26.995Z,100123.77
2023-05-19T21:09:56.611Z,100118.52
2023-05-19T21:12:25.437Z,100117.86
2023-05-19T21:14:53.778Z,100113.06
2023-05-19T21:17:22.204Z,100112.16
2023-05-19T21:19:50.858Z,100109.48
2023-05-19T21:22:19.270Z,100110.55
2023-05-19T21:24:47.779Z,100110.64
2023-05-19T21:27:16.109Z,100115.30
2023-05-19T21:29:44.616Z,100117.27
2023-05-19T21:32:12.989Z,100118.83
2023-05-19T21:34:41.356Z,100115.09
2023-05-19T21:37:09.676Z,100107.35
2023-05-19T21:39:38.053Z,100106.57
2023-05-19T21:42:06.476Z,100110.39
2023-05-19T21:44:34.952Z,100110.93
2023-05-19T21:47:03.401Z,100114.51
2023-05-19T21:49:31.783Z,100116.97
2023-05-19T21:52:00.140Z,100116.42
2023-05-19T21:54:28.446Z,100116.56
2023-05-19T21:56:56.866Z,100113.79
2023-05-19T21:59:26.352Z,100107.30
2023-05-19T22:01:54.736Z,100107.91
2023-05-19T22:04:23.294Z,100109.90
2023-05-19T22:06:51.690Z,100109.82
2023-05-19T22:09:19.957Z,100109.50
2023-05-19T22:11:48.143Z,100105.55
2023-05-19T22:14:16.415Z,100104.89
2023-05-19T22:16:44.782Z,100100.46
2023-05-19T22:19:13.533Z,100094.19
2023-05-19T22:21:42.033Z,100094.69
2023-05-19T22:24:10.284Z,100097.08
2023-05-19T22:26:42.646Z,100094.87
2023-05-19T22:29:15.187Z,100096.60
2023-05-19T22:31:43.480Z,100094.80
2023-05-19T22:34:15.589Z,100090.58
2023-05-19T22:36:46.006Z,100092.66
2023-05-19T22:39:14.420Z,100093.94
2023-05-19T22:41:42.830Z,100092.17
2023-05-19T22:44:15.493Z,100089.96
2023-05-19T22:46:44.718Z,100090.11
2023-05-19T22:49:13.055Z,100094.80
2023-05-19T22:51:41.368Z,100096.73
2023-05-19T22:54:10.665Z,100096.17
2023-05-19T22:56:38.904Z,100093.60
2023-05-19T22:59:07.987Z,100090.06
2023-05-19T23:01:36.342Z,100087.05
2023-05-19T23:04:05.028Z,100086.13
2023-05-19T23:06:33.405Z,100084.34
2023-05-19T23:09:03.503Z,100083.27
2023-05-19T23:11:31.876Z,100082.78
2023-05-19T23:14:00.183Z,100078.93
2023-05-19T23:16:28.514Z,100076.35
2023-05-19T23:18:56.920Z,100079.27
2023-05-19T23:21:25.411Z,100076.46
2023-05-19T23:23:53.854Z,100076.98
2023-05-19T23:26:22.363Z,100072.58
2023-05-19T23:28:50.826Z,100076.53
2023-05-19T23:31:19.210Z,100074.23
2023-05-19T23:33:47.586Z,100071.27
2023-05-19T23:36:16.192Z,100068.31
2023-05-19T23:38:44.512Z,100064.70
2023-05-19T23:41:12.874Z,100063.88
2023-05-19T23:43:41.210Z,100063.25
2023-05-19T23:46:09.581Z,100063.16
2023-05-19T23:48:37.999Z,100057.13
2023-05-19T23:51:06.366Z,100056.47
2023-05-19T23:53:34.697Z,100056.52
2023-05-19T23:56:02.979Z,100058.02
2023-05-19T23:58:31.461Z,100060.23
